createdAt,value
2019-04-07T00:02:19.940Z,29.15
2019-04-07T00:04:48.912Z,29.07
2019-04-07T00:07:17.678Z,23.65
2019-04-07T00:09:46.159Z,24.18
2019-04-07T00:12:14.899Z,27.73
2019-04-07T00:14:43.739Z,24.35
2019-04-07T00:17:12.292Z,26.97
2019-04-07T00:19:40.793Z,30.17
2019-04-07T00:22:09.437Z,28.70
2019-04-07T00:24:37.985Z,30.43
2019-04-07T00:27:06.898Z,32.98
2019-04-07T00:29:35.549Z,32.08
2019-04-07T00:32:04.057Z,28.45
2019-04-07T00:34:32.510Z,27.62
2019-04-07T00:37:01.026Z,35.40
2019-04-07T00:39:29.620Z,26.87
2019-04-07T00:41:58.278Z,31.05
2019-04-07T00:44:26.949Z,22.02
2019-04-07T00:46:55.407Z,34.35
2019-04-07T00:49:23.895Z,23.35
2019-04-07T00:51:53.848Z,32.25
2019-04-07T00:54:22.696Z,33.00
2019-04-07T00:56:51.243Z,31.35
2019-04-07T00:59:19.720Z,31.12
2019-04-07T01:01:48.262Z,27.42
2019-04-07T01:04:16.705Z,26.05
2019-04-07T01:06:45.190Z,34.85
2019-04-07T01:09:13.687Z,26.95
2019-04-07T01:11:42.189Z,25.30
2019-04-07T01:14:10.911Z,29.37
2019-04-07T01:16:39.464Z,26.57
2019-04-07T01:19:07.914Z,31.48
2019-04-07T01:21:36.449Z,28.75
2019-04-07T01:24:05.602Z,28.25
2019-04-07T01:26:34.385Z,26.85
2019-04-07T01:29:03.088Z,26.70
2019-04-07T01:31:31.703Z,30.50
2019-04-07T01:34:00.146Z,30.80
2019-04-07T01:36:29.251Z,30.57
2019-04-07T01:38:57.899Z,29.82
2019-04-07T01:41:27.993Z,26.65
2019-04-07T01:44:00.915Z,31.10
2019-04-07T01:46:37.122Z,28.55
2019-04-07T01:49:19.399Z,25.92
2019-04-07T01:51:50.295Z,28.23
2019-04-07T01:54:27.113Z,25.30
2019-04-07T01:57:09.261Z,32.45
2019-04-07T01:59:56.109Z,25.48
2019-04-07T02:02:38.958Z,29.60
2019-04-07T02:05:28.790Z,30.90
2019-04-07T02:08:14.530Z,33.47
2019-04-07T02:10:44.706Z,27.82
2019-04-07T02:13:21.405Z,30.52
2019-04-07T02:19:44.879Z,34.08
2019-04-07T02:22:39.339Z,28.42
2019-04-07T02:25:28.403Z,27.02
2019-04-07T02:28:17.603Z,32.03
2019-04-07T02:30:54.339Z,36.98
2019-04-07T02:33:24.705Z,31.33
2019-04-07T02:38:29.546Z,34.87
2019-04-07T02:41:06.204Z,34.65
2019-04-07T02:43:55.578Z,29.63
2019-04-07T02:46:26.900Z,33.73
2019-04-07T02:49:14.175Z,35.70
2019-04-07T02:51:54.167Z,26.17
2019-04-07T02:54:27.410Z,27.05
2019-04-07T02:56:57.664Z,31.53
2019-04-07T02:59:33.611Z,30.52
2019-04-07T03:02:06.385Z,32.90
2019-04-07T03:04:42.307Z,33.57
2019-04-07T03:07:21.883Z,34.30
2019-04-07T03:09:52.092Z,32.08
2019-04-07T03:12:23.331Z,38.63
2019-04-07T03:14:54.371Z,33.80
2019-04-07T03:17:25.646Z,32.40
2019-04-07T03:20:14.091Z,31.37
2019-04-07T03:22:44.193Z,36.43
2019-04-07T03:25:17.283Z,30.88
2019-04-07T03:27:48.646Z,31.03
2019-04-07T03:30:37.534Z,33.53
2019-04-07T03:33:10.433Z,30.07
2019-04-07T03:35:46.115Z,30.13
2019-04-07T03:38:18.991Z,34.83
2019-04-07T03:40:49.819Z,28.60
2019-04-07T03:43:31.568Z,31.83
2019-04-07T03:46:07.992Z,31.20
2019-04-07T03:48:44.481Z,33.80
2019-04-07T03:51:17.621Z,33.70
2019-04-07T03:53:50.534Z,32.57
2019-04-07T03:56:38.814Z,33.73
2019-04-07T03:59:18.234Z,33.37
2019-04-07T04:01:49.637Z,31.50
2019-04-07T04:04:19.834Z,39.17
2019-04-07T04:07:20.191Z,34.50
2019-04-07T04:09:41.260Z,34.95
2019-04-07T04:12:18.175Z,28.40
2019-04-07T04:14:56.994Z,31.03
2019-04-07T04:17:25.642Z,32.00
2019-04-07T04:19:54.105Z,33.97
2019-04-07T04:22:22.965Z,31.27
2019-04-07T04:24:53.351Z,29.50
2019-04-07T04:29:51.908Z,38.77
2019-04-07T04:32:21.562Z,32.53
2019-04-07T04:34:50.624Z,29.27
2019-04-07T04:37:34.557Z,32.90
2019-04-07T04:39:49.316Z,29.37
2019-04-07T04:42:18.486Z,29.80
2019-04-07T04:44:47.772Z,31.10
2019-04-07T04:47:16.713Z,30.37
2019-04-07T04:49:45.216Z,31.53
2019-04-07T04:52:13.707Z,35.83
2019-04-07T04:54:42.245Z,30.03
2019-04-07T04:57:11.203Z,34.87
2019-04-07T04:59:40.268Z,35.23
2019-04-07T05:02:09.047Z,36.27
2019-04-07T05:04:38.447Z,35.83
2019-04-07T05:07:07.547Z,33.87
2019-04-07T05:09:45.563Z,32.67
2019-04-07T05:12:06.882Z,36.77
2019-04-07T05:14:35.579Z,35.73
2019-04-07T05:17:04.080Z,39.30
2019-04-07T05:19:33.380Z,38.73
2019-04-07T05:22:02.485Z,32.83
2019-04-07T05:24:31.280Z,34.17
2019-04-07T05:26:59.819Z,34.07
2019-04-07T05:29:29.053Z,36.20
2019-04-07T05:31:57.657Z,35.87
2019-04-07T05:34:26.613Z,30.70
2019-04-07T05:36:56.027Z,33.93
2019-04-07T05:39:24.996Z,39.67
2019-04-07T05:41:54.764Z,43.80
2019-04-07T05:44:23.397Z,41.60
2019-04-07T05:46:51.873Z,34.77
2019-04-07T05:49:23.329Z,36.33
2019-04-07T05:51:50.629Z,37.13
2019-04-07T05:54:20.782Z,34.50
2019-04-07T05:56:49.445Z,35.08
2019-04-07T05:59:17.972Z,38.27
2019-04-07T06:01:47.023Z,38.20
2019-04-07T06:04:18.343Z,36.58
2019-04-07T06:06:50.549Z,30.57
2019-04-07T06:09:18.920Z,36.98
2019-04-07T06:11:47.671Z,33.80
2019-04-07T06:14:16.998Z,33.40
2019-04-07T06:16:45.740Z,34.08
2019-04-07T06:19:14.891Z,37.90
2019-04-07T06:21:46.145Z,33.75
2019-04-07T06:24:14.577Z,30.60
2019-04-07T06:26:47.612Z,37.78
2019-04-07T06:29:13.518Z,36.30
2019-04-07T06:31:42.366Z,36.53
2019-04-07T06:34:12.163Z,34.73
2019-04-07T06:36:40.771Z,33.78
2019-04-07T06:39:09.507Z,30.25
2019-04-07T06:41:38.936Z,37.70
2019-04-07T06:44:12.701Z,37.03
2019-04-07T06:46:58.535Z,33.38
2019-04-07T06:49:32.756Z,33.23
2019-04-07T06:52:12.297Z,32.25
2019-04-07T06:54:42.394Z,34.87
2019-04-07T06:57:28.278Z,35.65
2019-04-07T07:00:04.270Z,38.78
2019-04-07T07:02:50.888Z,39.45
2019-04-07T07:05:27.839Z,32.95
2019-04-07T07:08:00.958Z,35.25
2019-04-07T07:10:50.182Z,35.90
2019-04-07T07:13:28.447Z,36.08
2019-04-07T07:15:51.830Z,31.97
2019-04-07T07:18:28.356Z,38.75
2019-04-07T07:21:03.106Z,39.88
2019-04-07T07:23:33.255Z,41.77
2019-04-07T07:26:03.082Z,33.38
2019-04-07T07:28:32.602Z,32.23
2019-04-07T07:31:01.969Z,36.60
2019-04-07T07:33:30.728Z,37.23
2019-04-07T07:35:59.351Z,38.08
2019-04-07T07:38:31.148Z,42.48
2019-04-07T07:41:01.083Z,33.35
2019-04-07T07:43:29.570Z,43.78
2019-04-07T07:48:28.304Z,42.85
2019-04-07T07:50:57.059Z,36.58
2019-04-07T07:53:27.527Z,38.23
2019-04-07T07:55:56.500Z,39.38
2019-04-07T07:58:27.923Z,35.33
2019-04-07T08:00:55.574Z,35.75
2019-04-07T08:03:24.787Z,36.83
2019-04-07T08:05:53.684Z,35.03
2019-04-07T08:08:22.287Z,31.30
2019-04-07T08:10:50.820Z,34.18
2019-04-07T08:13:20.079Z,32.67
2019-04-07T08:15:49.318Z,39.63
2019-04-07T08:18:19.850Z,35.63
2019-04-07T08:20:48.985Z,33.80
2019-04-07T08:23:17.687Z,34.83
2019-04-07T08:25:46.147Z,30.97
2019-04-07T08:28:14.742Z,29.65
2019-04-07T08:30:47.192Z,29.48
2019-04-07T08:33:13.609Z,32.03
2019-04-07T08:35:42.655Z,27.82
2019-04-07T08:38:12.113Z,31.82
2019-04-07T08:40:40.782Z,31.57
2019-04-07T08:43:09.308Z,32.83
2019-04-07T08:45:38.132Z,31.52
2019-04-07T08:48:07.327Z,27.42
2019-04-07T08:50:36.328Z,28.45
2019-04-07T08:53:04.866Z,30.62
2019-04-07T08:55:33.529Z,32.53
2019-04-07T08:58:04.298Z,26.60
2019-04-07T09:00:34.018Z,26.37
2019-04-07T09:03:07.790Z,29.40
2019-04-07T09:05:33.462Z,29.23
2019-04-07T09:08:05.544Z,24.57
2019-04-07T09:10:37.181Z,24.50
2019-04-07T09:13:08.361Z,30.45
2019-04-07T09:15:50.043Z,24.18
2019-04-07T09:18:26.565Z,22.05
2019-04-07T09:21:15.080Z,24.63
2019-04-07T09:24:01.022Z,27.62
2019-04-07T09:26:31.184Z,24.80
2019-04-07T09:29:01.363Z,28.90
2019-04-07T09:31:40.978Z,24.32
2019-04-07T09:34:23.258Z,24.85
2019-04-07T09:36:53.427Z,20.97
2019-04-07T09:39:23.659Z,19.82
2019-04-07T09:44:40.225Z,23.55
2019-04-07T09:47:15.946Z,25.55
2019-04-07T09:49:49.295Z,22.75
2019-04-07T09:52:36.156Z,21.35
2019-04-07T09:55:19.557Z,23.15
2019-04-07T09:57:50.588Z,23.52
2019-04-07T10:00:22.879Z,23.60
2019-04-07T10:02:58.521Z,24.72
2019-04-07T10:05:40.227Z,25.27
2019-04-07T10:08:17.978Z,20.75
2019-04-07T10:10:48.271Z,23.40
2019-04-07T10:13:18.896Z,22.07
2019-04-07T10:15:49.087Z,22.93
2019-04-07T10:18:36.746Z,23.87
2019-04-07T10:21:10.122Z,22.17
2019-04-07T10:23:40.408Z,22.32
2019-04-07T10:29:06.051Z,21.23
2019-04-07T10:31:45.291Z,21.77
2019-04-07T10:34:16.224Z,25.97
2019-04-07T10:37:04.556Z,23.80
2019-04-07T10:42:29.310Z,23.73
2019-04-07T10:45:00.315Z,20.40
2019-04-07T10:47:33.643Z,29.02
2019-04-07T10:50:10.093Z,19.80
2019-04-07T10:52:58.542Z,22.40
2019-04-07T10:55:35.197Z,28.27
2019-04-07T10:58:18.000Z,18.67
2019-04-07T11:00:50.640Z,18.65
2019-04-07T11:03:26.036Z,21.50
2019-04-07T11:06:11.639Z,20.70
2019-04-07T11:08:42.232Z,19.77
2019-04-07T11:11:22.256Z,24.92
2019-04-07T11:14:09.727Z,20.30
2019-04-07T11:16:43.151Z,18.95
2019-04-07T11:19:16.306Z,17.90
2019-04-07T11:21:46.770Z,20.55
2019-04-07T11:24:17.704Z,20.17
2019-04-07T11:26:56.976Z,17.98
2019-04-07T11:29:33.693Z,19.92
2019-04-07T11:32:05.418Z,17.07
2019-04-07T11:34:45.511Z,16.62
2019-04-07T11:37:33.954Z,15.63
2019-04-07T11:40:06.631Z,19.57
2019-04-07T11:42:49.078Z,18.42
2019-04-07T11:45:25.395Z,16.25
2019-04-07T11:48:01.499Z,23.45
2019-04-07T11:50:34.399Z,16.87
2019-04-07T11:53:13.683Z,17.12
2019-04-07T11:55:53.236Z,18.52
2019-04-07T11:58:32.244Z,16.82
2019-04-07T12:01:06.951Z,16.05
2019-04-07T12:03:37.544Z,17.60
2019-04-07T12:06:25.433Z,21.75
2019-04-07T12:08:55.800Z,17.02
2019-04-07T12:14:09.015Z,17.35
2019-04-07T12:19:36.658Z,15.30
2019-04-07T12:22:14.187Z,17.17
2019-04-07T12:24:45.488Z,16.25
2019-04-07T12:27:16.169Z,17.07
2019-04-07T12:29:47.114Z,17.92
2019-04-07T12:32:23.799Z,17.90
2019-04-07T12:35:06.316Z,17.82
2019-04-07T12:37:48.832Z,19.15
2019-04-07T12:40:36.545Z,20.17
2019-04-07T12:43:07.459Z,20.45
2019-04-07T12:45:38.407Z,18.45
2019-04-07T12:48:09.172Z,20.88
2019-04-07T12:50:39.456Z,18.75
2019-04-07T12:53:21.951Z,18.10
2019-04-07T12:56:09.579Z,16.70
2019-04-07T12:58:47.477Z,16.73
2019-04-07T13:01:19.838Z,18.23
2019-04-07T13:03:53.609Z,19.75
2019-04-07T13:06:26.621Z,15.48
2019-04-07T13:08:57.855Z,20.77
2019-04-07T13:11:47.168Z,16.90
2019-04-07T13:14:32.403Z,14.68
2019-04-07T13:17:17.714Z,21.68
2019-04-07T13:19:51.426Z,20.30
2019-04-07T13:22:22.430Z,19.40
2019-04-07T13:25:09.127Z,17.57
2019-04-07T13:27:42.740Z,16.75
2019-04-07T13:30:28.596Z,13.28
2019-04-07T13:33:08.107Z,17.17
2019-04-07T13:35:55.100Z,15.78
2019-04-07T13:38:40.382Z,18.00
2019-04-07T13:41:37.305Z,19.25
2019-04-07T13:44:04.767Z,13.88
2019-04-07T13:46:36.036Z,15.50
2019-04-07T13:49:04.411Z,16.00
2019-04-07T13:51:51.360Z,18.32
2019-04-07T13:54:38.345Z,12.55
2019-04-07T13:57:11.359Z,13.80
2019-04-07T13:59:58.196Z,11.55
2019-04-07T14:02:31.827Z,13.48
2019-04-07T14:05:14.936Z,13.03
2019-04-07T14:07:51.567Z,18.15
2019-04-07T14:10:20.246Z,19.25
2019-04-07T14:13:05.390Z,14.47
2019-04-07T14:15:34.788Z,14.95
2019-04-07T14:18:11.331Z,15.38
2019-04-07T14:20:54.066Z,13.55
2019-04-07T14:23:25.141Z,12.80
2019-04-07T14:26:07.856Z,15.68
2019-04-07T14:28:41.217Z,12.63
2019-04-07T14:31:17.558Z,13.32
2019-04-07T14:34:04.027Z,11.85
2019-04-07T14:36:53.552Z,14.28
2019-04-07T14:39:39.092Z,13.40
2019-04-07T14:42:29.222Z,11.20
2019-04-07T14:45:00.193Z,17.32
2019-04-07T14:47:42.607Z,17.25
2019-04-07T14:50:15.698Z,18.67
2019-04-07T14:52:51.663Z,14.83
2019-04-07T14:55:22.620Z,15.38
2019-04-07T14:57:56.476Z,11.35
2019-04-07T15:00:29.383Z,11.63
2019-04-07T15:02:58.008Z,15.10
2019-04-07T15:05:43.714Z,15.30
2019-04-07T15:08:20.440Z,14.65
2019-04-07T15:10:53.587Z,16.10
2019-04-07T15:13:28.227Z,11.08
2019-04-07T15:15:57.175Z,13.20
2019-04-07T15:18:25.814Z,12.63
2019-04-07T15:20:54.266Z,11.12
2019-04-07T15:23:23.034Z,14.68
2019-04-07T15:25:51.862Z,14.07
2019-04-07T15:28:21.565Z,18.90
2019-04-07T15:30:51.736Z,11.68
2019-04-07T15:33:21.059Z,12.75
2019-04-07T15:35:50.578Z,12.95
2019-04-07T15:38:23.849Z,12.10
2019-04-07T15:40:49.550Z,13.88
2019-04-07T15:43:19.056Z,11.88
2019-04-07T15:45:48.701Z,14.25
2019-04-07T15:48:17.270Z,11.50
2019-04-07T15:50:45.719Z,13.62
2019-04-07T15:53:15.335Z,15.20
2019-04-07T15:55:50.965Z,10.98
2019-04-07T15:58:15.013Z,17.98
2019-04-07T16:00:44.200Z,13.38
2019-04-07T16:05:45.884Z,15.23
2019-04-07T16:08:13.642Z,14.20
2019-04-07T16:10:42.504Z,18.02
2019-04-07T16:13:11.255Z,18.90
2019-04-07T16:15:42.657Z,15.58
2019-04-07T16:18:10.615Z,13.13
2019-04-07T16:20:40.357Z,13.50
2019-04-07T16:23:10.328Z,16.42
2019-04-07T16:25:40.493Z,16.00
2019-04-07T16:28:12.862Z,15.35
2019-04-07T16:30:40.674Z,15.50
2019-04-07T16:33:09.992Z,15.18
2019-04-07T16:35:38.701Z,14.15
2019-04-07T16:38:07.384Z,13.13
2019-04-07T16:40:35.925Z,15.65
2019-04-07T16:43:13.382Z,18.25
2019-04-07T16:45:34.638Z,12.90
2019-04-07T16:48:05.046Z,13.98
2019-04-07T16:53:04.514Z,13.13
2019-04-07T16:58:03.870Z,13.80
2019-04-07T17:00:32.454Z,11.68
2019-04-07T17:03:01.316Z,18.87
2019-04-07T17:05:30.296Z,13.75
2019-04-07T17:07:59.486Z,12.50
2019-04-07T17:10:30.954Z,13.98
2019-04-07T17:15:28.469Z,13.13
2019-04-07T17:17:57.078Z,24.10
2019-04-07T17:20:28.414Z,14.40
2019-04-07T17:22:56.932Z,16.55
2019-04-07T17:25:25.558Z,10.48
2019-04-07T17:27:56.013Z,16.00
2019-04-07T17:32:53.995Z,14.57
2019-04-07T17:35:23.253Z,14.30
2019-04-07T17:37:53.533Z,14.18
2019-04-07T17:40:24.611Z,11.97
2019-04-07T17:42:55.017Z,16.97
2019-04-07T17:45:34.388Z,15.98
2019-04-07T17:48:21.338Z,19.83
2019-04-07T17:50:51.641Z,18.48
2019-04-07T17:53:38.230Z,16.42
2019-04-07T17:56:18.050Z,15.83
2019-04-07T17:58:52.357Z,15.88
2019-04-07T18:01:24.714Z,17.65
2019-04-07T18:04:15.567Z,21.55
2019-04-07T18:06:47.507Z,18.27
2019-04-07T18:09:26.575Z,12.90
2019-04-07T18:12:12.809Z,14.55
2019-04-07T18:14:57.428Z,13.68
2019-04-07T18:17:36.596Z,14.98
2019-04-07T18:20:18.087Z,16.77
2019-04-07T18:22:53.216Z,15.45
2019-04-07T18:25:26.204Z,16.10
2019-04-07T18:27:59.936Z,15.43
2019-04-07T18:30:47.231Z,15.72
2019-04-07T18:33:21.789Z,13.55
2019-04-07T18:36:05.092Z,11.25
2019-04-07T18:38:42.701Z,13.38
2019-04-07T18:41:28.818Z,12.40
2019-04-07T18:44:18.399Z,15.88
2019-04-07T18:47:05.151Z,17.27
2019-04-07T18:49:51.745Z,16.48
2019-04-07T18:52:34.127Z,14.60
2019-04-07T18:55:09.538Z,14.80
2019-04-07T18:57:40.079Z,11.60
2019-04-07T19:00:31.474Z,12.35
2019-04-07T19:03:00.295Z,15.80
2019-04-07T19:05:40.628Z,12.68
2019-04-07T19:08:21.321Z,14.13
2019-04-07T19:11:07.071Z,14.45
2019-04-07T19:13:38.128Z,16.65
2019-04-07T19:16:11.116Z,13.62
2019-04-07T19:18:57.420Z,13.78
2019-04-07T19:21:38.796Z,15.00
2019-04-07T19:24:14.071Z,15.85
2019-04-07T19:26:54.576Z,18.10
2019-04-07T19:29:26.181Z,12.98
2019-04-07T19:32:05.900Z,16.25
2019-04-07T19:34:53.084Z,14.65
2019-04-07T19:37:32.585Z,14.35
2019-04-07T19:40:19.329Z,16.07
2019-04-07T19:43:06.100Z,13.13
2019-04-07T19:45:55.327Z,17.00
2019-04-07T19:48:27.202Z,12.45
2019-04-07T19:50:59.031Z,13.78
2019-04-07T19:53:38.717Z,14.00
2019-04-07T19:56:18.825Z,11.83
2019-04-07T19:59:05.935Z,11.55
2019-04-07T20:01:44.931Z,13.72
2019-04-07T20:04:31.440Z,15.05
2019-04-07T20:07:07.779Z,15.08
2019-04-07T20:09:46.779Z,14.25
2019-04-07T20:12:21.794Z,13.20
2019-04-07T20:15:08.876Z,14.70
2019-04-07T20:17:53.370Z,15.88
2019-04-07T20:20:24.373Z,14.55
2019-04-07T20:23:00.180Z,15.72
2019-04-07T20:25:31.111Z,11.57
2019-04-07T20:28:04.124Z,19.50
2019-04-07T20:30:49.395Z,16.15
2019-04-07T20:33:34.786Z,16.57
2019-04-07T20:36:23.019Z,16.75
2019-04-07T20:38:48.713Z,13.18
2019-04-07T20:41:24.797Z,17.27
2019-04-07T20:44:01.194Z,12.78
2019-04-07T20:46:47.583Z,16.27
2019-04-07T20:49:35.392Z,16.93
2019-04-07T20:52:25.053Z,17.65
2019-04-07T20:55:08.362Z,19.45
2019-04-07T20:57:46.774Z,20.70
2019-04-07T21:00:37.189Z,22.32
2019-04-07T21:03:25.595Z,21.15
2019-04-07T21:06:00.029Z,16.70
2019-04-07T21:08:34.275Z,19.85
2019-04-07T21:11:10.993Z,19.50
2019-04-07T21:13:44.302Z,22.10
2019-04-07T21:16:31.217Z,21.07
2019-04-07T21:19:05.510Z,24.32
2019-04-07T21:21:34.503Z,20.40
2019-04-07T21:24:23.212Z,24.70
2019-04-07T21:26:57.970Z,21.73
2019-04-07T21:29:34.471Z,22.75
2019-04-07T21:32:21.586Z,26.00
2019-04-07T21:34:51.859Z,24.00
2019-04-07T21:37:28.464Z,27.02
2019-04-07T21:40:17.527Z,23.20
2019-04-07T21:42:54.516Z,22.22
2019-04-07T21:45:36.818Z,20.12
2019-04-07T21:47:58.667Z,22.65
2019-04-07T21:50:31.604Z,24.80
2019-04-07T21:53:10.996Z,21.87
2019-04-07T21:55:47.679Z,25.65
2019-04-07T21:58:25.401Z,22.67
2019-04-07T22:01:09.404Z,22.22
2019-04-07T22:03:58.773Z,20.85
2019-04-07T22:06:29.850Z,21.93
2019-04-07T22:09:15.182Z,23.22
2019-04-07T22:11:44.652Z,25.17
2019-04-07T22:14:14.526Z,24.52
2019-04-07T22:16:43.253Z,24.18
2019-04-07T22:19:14.765Z,20.55
2019-04-07T22:21:42.419Z,22.20
2019-04-07T22:24:11.149Z,20.35
2019-04-07T22:26:40.588Z,21.82
2019-04-07T22:29:09.774Z,25.33
2019-04-07T22:31:46.648Z,22.20
2019-04-07T22:34:16.504Z,23.57
2019-04-07T22:36:47.611Z,21.27
2019-04-07T22:39:16.084Z,19.27
2019-04-07T22:41:44.793Z,22.37
2019-04-07T22:44:13.645Z,21.68
2019-04-07T22:46:42.107Z,21.75
2019-04-07T22:49:11.361Z,21.65
2019-04-07T22:51:43.039Z,18.65
2019-04-07T22:54:10.264Z,18.45
2019-04-07T22:56:39.919Z,24.30
2019-04-07T22:59:11.217Z,22.25
2019-04-07T23:01:39.192Z,20.17
2019-04-07T23:04:07.880Z,22.02
2019-04-07T23:06:36.370Z,24.50
2019-04-07T23:09:07.809Z,21.15
2019-04-07T23:11:36.477Z,21.37
2019-04-07T23:14:05.106Z,22.25
2019-04-07T23:16:33.556Z,22.40
2019-04-07T23:19:02.696Z,23.55
2019-04-07T23:21:31.983Z,18.90
2019-04-07T23:24:01.269Z,21.65
2019-04-07T23:26:29.952Z,20.60
2019-04-07T23:28:58.566Z,19.67
2019-04-07T23:31:27.992Z,21.95
2019-04-07T23:33:56.548Z,24.25
2019-04-07T23:36:25.242Z,23.73
2019-04-07T23:38:53.895Z,21.23
2019-04-07T23:41:22.445Z,19.62
2019-04-07T23:43:51.089Z,17.70
2019-04-07T23:46:24.197Z,20.23
2019-04-07T23:48:49.805Z,21.33
2019-04-07T23:51:18.574Z,19.67
2019-04-07T23:54:11.125Z,21.87
2019-04-07T23:56:41.633Z,22.02
